Time;durP1;ratioP1;P1;durP2;ratioP2;P2;SDS_P1;SDS_P2;PMS_P1;PMS_P2;Temp;Humidity;BMP_temperature;BMP_pressure;BME280_temperature;BME280_humidity;BME280_pressure;Samples;Min_cycle;Max_cycle;Signal;HPM_P1;HPM_P2
2023/04/19 00:03:46;;;;;;;4.07;2.33;;;;;;;16.80;59.83;96962.66;10372283;28;20037;-32
2023/04/19 00:08:46;;;;;;;5.17;2.60;;;;;;;16.86;59.85;96967.78;10369903;28;20038;-33
2023/04/19 00:13:48;;;;;;;3.87;1.90;;;;;;;16.86;59.26;96978.75;10363445;28;20103;-33
2023/04/19 00:18:48;;;;;;;2.80;2.10;;;;;;;16.85;58.21;96978.72;10372051;28;20496;-33
2023/04/19 00:23:48;;;;;;;3.43;1.90;;;;;;;16.84;58.09;96970.28;10354858;28;20105;-32
2023/04/19 00:28:49;;;;;;;2.80;1.73;;;;;;;16.82;57.41;96963.53;10361994;28;20046;-32
2023/04/19 00:33:49;;;;;;;7.17;2.30;;;;;;;16.80;57.89;96967.72;10362027;28;20481;-32
2023/04/19 00:38:49;;;;;;;4.13;2.50;;;;;;;16.78;58.09;96964.31;10347914;28;20446;-32
2023/04/19 00:43:50;;;;;;;3.67;1.97;;;;;;;16.79;57.73;96961.81;10369814;28;20109;-33
2023/04/19 00:48:50;;;;;;;5.37;1.70;;;;;;;16.78;57.25;96960.13;10354210;28;20034;-32
2023/04/19 00:53:51;;;;;;;4.07;1.95;;;;;;;16.77;57.53;96956.75;10351512;28;20042;-31
2023/04/19 00:58:53;;;;;;;2.53;1.60;;;;;;;16.77;57.92;96953.38;10369481;28;20072;-32
2023/04/19 01:03:53;;;;;;;2.08;1.60;;;;;;;16.79;57.55;96948.31;10367772;28;20121;-32
2023/04/19 01:08:56;;;;;;;2.47;1.98;;;;;;;16.79;58.47;96950.84;10359475;28;20496;-32
2023/04/19 01:13:59;;;;;;;4.43;2.22;;;;;;;16.82;59.94;96946.66;10350894;28;20034;-34
2023/04/19 01:19:00;;;;;;;4.88;2.30;;;;;;;16.85;59.36;96944.19;10359802;28;20032;-31
2023/04/19 01:24:00;;;;;;;2.70;2.20;;;;;;;16.79;58.10;96941.59;10350585;28;20777;-32
2023/04/19 01:29:00;;;;;;;2.70;1.80;;;;;;;16.77;58.36;96938.22;10360828;28;20489;-33
2023/04/19 01:34:01;;;;;;;3.00;2.20;;;;;;;16.77;58.23;96937.34;10360053;28;20030;-32
2023/04/19 01:39:01;;;;;;;3.10;1.57;;;;;;;16.76;58.18;96933.13;10366535;28;20040;-33
2023/04/19 01:44:02;;;;;;;5.13;2.20;;;;;;;16.76;58.00;96925.53;10343766;28;20073;-32
2023/04/19 01:49:02;;;;;;;2.95;1.80;;;;;;;16.77;57.37;96921.34;10359242;28;20029;-32
2023/04/19 01:54:02;;;;;;;2.93;1.83;;;;;;;16.75;57.69;96913.75;10347927;28;20104;-32
2023/04/19 01:59:03;;;;;;;3.47;2.37;;;;;;;16.74;57.66;96907.00;10359098;28;20975;-32
2023/04/19 02:04:06;;;;;;;3.78;1.60;;;;;;;16.74;57.85;96907.00;10356932;28;20288;-32
2023/04/19 02:09:07;;;;;;;3.72;1.70;;;;;;;16.73;57.51;96905.31;10365781;28;20053;-32
2023/04/19 02:14:07;;;;;;;2.42;1.63;;;;;;;16.73;58.03;96908.66;10360156;28;20058;-33
2023/04/19 02:19:08;;;;;;;3.30;2.03;;;;;;;16.77;60.00;96908.72;10358919;28;20141;-32
2023/04/19 02:24:08;;;;;;;3.70;1.70;;;;;;;16.82;59.71;96902.84;10364695;28;20416;-33
2023/04/19 02:29:08;;;;;;;2.20;1.90;;;;;;;16.79;58.71;96900.28;10358775;28;20046;-32
2023/04/19 02:34:09;;;;;;;5.10;2.30;;;;;;;16.78;57.83;96898.59;10366703;28;20288;-32
2023/04/19 02:39:10;;;;;;;2.00;1.65;;;;;;;16.76;57.60;96907.84;10373793;28;20109;-33
2023/04/19 02:44:12;;;;;;;2.45;1.75;;;;;;;16.75;57.79;96898.56;10364978;28;20033;-32
2023/04/19 02:49:12;;;;;;;3.35;2.03;;;;;;;16.75;57.77;96896.88;10364063;28;20040;-32
2023/04/19 02:54:13;;;;;;;3.70;1.93;;;;;;;16.75;57.62;96898.56;10352485;28;20030;-32
2023/04/19 02:59:15;;;;;;;3.05;1.70;;;;;;;16.73;57.05;96890.13;10367111;28;20104;-32
2023/04/19 03:04:17;;;;;;;4.25;2.05;;;;;;;16.72;57.53;96887.56;10364192;28;20044;-32
2023/04/19 03:09:17;;;;;;;5.43;1.60;;;;;;;16.72;57.42;96890.09;10361424;28;20038;-32
2023/04/19 03:14:18;;;;;;;3.33;2.00;;;;;;;16.73;57.54;96889.28;10363724;28;20042;-31
2023/04/19 03:19:18;;;;;;;2.03;1.42;;;;;;;16.72;57.83;96887.56;10371598;28;20285;-32
2023/04/19 03:24:29;;;;;;;3.83;2.28;;;;;;;16.75;59.37;96880.88;10370885;28;20029;-32
2023/04/19 03:29:32;;;;;;;3.22;2.03;;;;;;;16.80;59.70;96879.22;10360988;28;20065;-32
2023/04/19 03:34:40;;;;;;;3.53;1.60;;;;;;;16.81;58.96;96878.41;10360029;28;20188;-32
2023/04/19 03:39:40;;;;;;;3.60;1.80;;;;;;;16.75;58.53;96868.22;10354643;28;20515;-32
2023/04/19 03:44:46;;;;;;;2.83;1.73;;;;;;;16.71;58.13;96870.72;10356290;28;20515;-32
2023/04/19 03:49:47;;;;;;;2.13;1.65;;;;;;;16.73;57.77;96874.09;10364600;28;20030;-32
2023/04/19 03:54:48;;;;;;;3.10;1.77;;;;;;;16.71;57.75;96871.56;10352326;28;20037;-32
2023/04/19 04:00:06;;;;;;;3.40;1.23;;;;;;;16.76;57.34;96874.97;10349613;28;20022;-32
2023/04/19 04:05:14;;;;;;;2.50;1.70;;;;;;;16.77;58.84;96872.47;10346976;28;20034;-32
2023/04/19 04:10:17;;;;;;;3.35;1.63;;;;;;;16.77;58.69;96880.91;10348681;28;20034;-31
2023/04/19 04:15:18;;;;;;;2.58;1.98;;;;;;;16.77;58.84;96876.66;10343903;28;20053;-33
2023/04/19 04:20:23;;;;;;;7.65;1.92;;;;;;;16.83;58.22;96874.22;10361174;28;20140;-32
2023/04/19 04:25:28;;;;;;;2.55;1.73;;;;;;;16.86;57.34;96879.28;10352420;28;20029;-32
2023/04/19 04:30:29;;;;;;;2.60;1.75;;;;;;;16.87;58.04;96870.84;10356637;28;20044;-33
2023/04/19 04:35:31;;;;;;;2.40;1.63;;;;;;;16.89;58.68;96882.69;10361277;28;20026;-32
2023/04/19 04:40:41;;;;;;;1.95;1.48;;;;;;;16.90;58.40;96879.31;10343973;28;20030;-32
2023/04/19 04:45:43;;;;;;;4.68;2.67;;;;;;;16.77;57.23;96882.59;10366848;28;20408;-31
2023/04/19 04:50:44;;;;;;;3.88;2.65;;;;;;;16.69;55.82;96890.91;10367662;28;20030;-33
2023/04/19 04:55:44;;;;;;;4.03;2.03;;;;;;;16.80;56.03;96895.25;10360395;28;20117;-32
2023/04/19 05:00:47;;;;;;;11.55;2.80;;;;;;;16.84;56.92;96888.53;10339499;28;20086;-31
2023/04/19 05:05:48;;;;;;;7.10;2.50;;;;;;;16.82;55.25;96880.09;10347384;28;20128;-32
2023/04/19 05:10:49;;;;;;;2.63;2.15;;;;;;;16.86;56.34;96875.09;10366813;28;20030;-31
2023/04/19 05:15:49;;;;;;;4.60;2.67;;;;;;;16.87;58.35;96888.56;10364399;28;20060;-32
2023/04/19 05:20:50;;;;;;;7.10;2.80;;;;;;;16.87;57.36;96888.56;10367446;28;20033;-32
2023/04/19 05:25:55;;;;;;;11.10;3.13;;;;;;;16.87;57.34;96891.09;10358945;28;20037;-32
2023/04/19 05:30:58;;;;;;;12.18;3.83;;;;;;;16.86;56.75;96891.91;10343612;28;20513;-31
2023/04/19 05:36:03;;;;;;;9.52;3.90;;;;;;;16.81;56.96;96889.34;10343463;28;20025;-32
2023/04/19 05:41:04;;;;;;;6.53;3.53;;;;;;;16.84;58.51;96896.97;10367106;28;20508;-32
2023/04/19 05:46:04;;;;;;;8.25;2.90;;;;;;;16.87;58.20;96897.00;10355851;28;20030;-33
2023/04/19 05:51:05;;;;;;;9.27;4.13;;;;;;;16.90;58.12;96893.66;10358466;28;20038;-31
2023/04/19 05:56:23;;;;;;;10.13;3.75;;;;;;;16.88;57.13;96895.31;10344147;28;20573;-33
2023/04/19 06:01:24;;;;;;;6.68;2.97;;;;;;;16.83;57.75;96899.50;10343885;28;20084;-32
2023/04/19 06:06:25;;;;;;;8.18;3.38;;;;;;;16.80;57.79;96896.91;10355796;28;20069;-32
2023/04/19 06:11:25;;;;;;;6.03;3.50;;;;;;;16.80;58.42;96900.31;10375417;28;20064;-33
2023/04/19 06:16:25;;;;;;;4.83;2.83;;;;;;;16.79;58.21;96905.34;10359798;28;20036;-33
2023/04/19 06:21:30;;;;;;;9.82;3.40;;;;;;;16.78;58.29;96903.66;10373835;28;20041;-32
2023/04/19 06:26:30;;;;;;;4.13;2.63;;;;;;;16.75;58.24;96898.56;10363890;28;20424;-31
2023/04/19 06:31:31;;;;;;;6.67;3.07;;;;;;;16.77;57.92;96907.00;10362520;28;20033;-32
2023/04/19 06:36:32;;;;;;;6.72;2.95;;;;;;;16.76;58.23;96905.31;10371747;28;20025;-32
2023/04/19 06:41:32;;;;;;;6.95;2.50;;;;;;;16.76;58.00;96907.84;10374639;28;20504;-32
2023/04/19 06:46:33;;;;;;;6.47;3.03;;;;;;;16.74;58.11;96912.06;10364290;28;20412;-32
2023/04/19 06:51:33;;;;;;;6.30;3.00;;;;;;;16.80;58.51;96912.09;10360733;28;20464;-32
2023/04/19 06:56:44;;;;;;;6.05;3.30;;;;;;;16.83;58.29;96912.13;10371159;28;20030;-32
2023/04/19 07:01:46;;;;;;;6.38;3.10;;;;;;;16.84;58.17;96911.28;10363646;28;20112;-32
2023/04/19 07:06:48;;;;;;;4.70;3.30;;;;;;;16.78;58.21;96913.75;10368954;28;20119;-32
2023/04/19 07:11:50;;;;;;;7.18;3.35;;;;;;;16.76;58.26;96905.31;10369752;28;20042;-32
2023/04/19 07:16:52;;;;;;;3.90;2.38;;;;;;;16.77;57.96;96909.53;10365710;28;20567;-32
2023/04/19 07:21:52;;;;;;;3.95;2.35;;;;;;;16.77;58.20;96907.00;10362668;28;20510;-31
2023/04/19 07:26:53;;;;;;;5.50;3.17;;;;;;;16.76;57.77;96907.84;10367546;28;20045;-32
2023/04/19 07:31:54;;;;;;;3.37;2.60;;;;;;;16.77;57.49;96902.81;10363084;28;20042;-32
2023/04/19 07:36:54;;;;;;;4.40;2.70;;;;;;;16.77;57.57;96896.06;10372356;28;20148;-32
2023/04/19 07:41:55;;;;;;;3.27;2.27;;;;;;;16.77;57.51;96901.13;10355863;28;20117;-32
2023/04/19 07:46:55;;;;;;;3.67;2.20;;;;;;;16.77;57.79;96907.00;10348313;28;20034;-32
2023/04/19 07:51:55;;;;;;;5.80;2.67;;;;;;;16.77;57.51;96901.97;10349676;28;20406;-32
2023/04/19 07:56:57;;;;;;;2.97;2.47;;;;;;;16.75;57.38;96903.63;10369365;28;20285;-32
2023/04/19 08:01:58;;;;;;;4.82;2.83;;;;;;;16.78;58.31;96898.59;10356965;28;20054;-31
2023/04/19 08:06:58;;;;;;;3.10;2.38;;;;;;;16.78;58.35;96891.88;10347127;28;20531;-32
2023/04/19 08:12:00;;;;;;;3.23;2.50;;;;;;;16.79;58.23;96892.69;10354620;28;20392;-31
2023/04/19 08:17:00;;;;;;;4.43;2.03;;;;;;;16.76;57.34;96887.63;10362323;28;20376;-32
2023/04/19 08:22:03;;;;;;;4.10;2.42;;;;;;;16.78;57.27;96896.06;10369135;28;20121;-32
2023/04/19 08:27:03;;;;;;;4.55;2.60;;;;;;;16.77;57.34;96897.75;10359829;28;20580;-31
2023/04/19 08:32:06;;;;;;;3.10;2.20;;;;;;;16.74;57.18;96891.81;10362471;28;20038;-32
2023/04/19 08:37:07;;;;;;;4.18;2.75;;;;;;;16.77;57.16;96896.91;10352516;28;20040;-31
2023/04/19 08:42:09;;;;;;;2.80;2.35;;;;;;;16.76;56.89;96885.09;10370320;28;20036;-32
2023/04/19 08:47:10;;;;;;;2.30;2.03;;;;;;;16.75;57.10;96885.94;10354195;28;20260;-33
2023/04/19 08:52:12;;;;;;;3.75;2.30;;;;;;;16.76;56.75;96887.63;10356607;28;20065;-31
2023/04/19 08:57:13;;;;;;;3.83;2.40;;;;;;;16.75;56.98;96883.41;10353349;28;20053;-32
2023/04/19 09:02:14;;;;;;;3.38;2.13;;;;;;;16.77;57.04;96885.97;10345036;28;20049;-32
2023/04/19 09:07:25;;;;;;;4.38;2.58;;;;;;;16.77;56.37;96885.97;10364508;28;20061;-31
2023/04/19 09:12:26;;;;;;;3.80;2.50;;;;;;;16.77;58.42;96880.91;10360720;28;20061;-32
2023/04/19 09:17:26;;;;;;;5.53;2.65;;;;;;;16.79;58.29;96870.81;10362347;28;20053;-32
2023/04/19 09:22:26;;;;;;;3.93;2.60;;;;;;;16.77;58.13;96875.00;10359554;28;20080;-32
2023/04/19 09:27:29;;;;;;;2.80;2.23;;;;;;;16.78;57.67;96868.25;10352047;28;20049;-32
2023/04/19 09:32:45;;;;;;;4.00;2.35;;;;;;;16.77;57.05;96862.38;10353409;28;20284;-32
2023/04/19 09:38:01;;;;;;;2.50;1.83;;;;;;;16.75;56.89;96858.94;10364159;28;20080;-32
2023/04/19 09:43:02;;;;;;;2.80;1.73;;;;;;;16.75;56.30;96853.06;10354234;28;20030;-31
2023/04/19 09:48:06;;;;;;;3.45;2.38;;;;;;;16.74;56.51;96857.25;10343317;28;20412;-33
2023/04/19 09:53:06;;;;;;;4.72;2.45;;;;;;;16.73;56.25;96858.09;10360695;28;20030;-33
2023/04/19 09:58:07;;;;;;;3.67;2.38;;;;;;;16.72;56.20;96855.59;10353330;28;20448;-32
2023/04/19 10:03:09;;;;;;;2.93;1.90;;;;;;;16.70;56.15;96839.53;10358038;28;20091;-32
2023/04/19 10:08:11;;;;;;;3.30;2.35;;;;;;;16.74;56.26;96843.78;10353656;28;20027;-32
2023/04/19 10:13:14;;;;;;;2.72;2.25;;;;;;;16.75;55.27;96837.91;10358968;28;20058;-32
2023/04/19 10:18:15;;;;;;;3.30;2.20;;;;;;;16.77;57.79;96835.41;10358425;28;20030;-32
2023/04/19 10:23:16;;;;;;;3.08;2.20;;;;;;;16.78;58.40;96835.38;10362231;28;20022;-32
2023/04/19 10:28:17;;;;;;;2.33;2.08;;;;;;;16.80;57.65;96828.66;10359666;28;20466;-32
2023/04/19 10:33:26;;;;;;;2.90;2.30;;;;;;;16.81;57.31;96826.16;10351143;28;20035;-32
2023/04/19 10:38:37;;;;;;;2.85;2.17;;;;;;;16.79;57.43;96830.34;10351100;28;20659;-32
2023/04/19 10:43:38;;;;;;;4.13;2.30;;;;;;;16.76;57.70;96824.41;10335089;28;20038;-32
2023/04/19 10:48:57;;;;;;;4.93;2.47;;;;;;;16.74;57.39;96821.03;10351455;28;20049;-33
2023/04/19 10:53:58;;;;;;;3.22;2.22;;;;;;;16.78;57.83;96818.53;10354317;28;20491;-32
2023/04/19 10:58:58;;;;;;;2.90;2.10;;;;;;;16.80;57.72;96816.00;10344310;28;20030;-31
2023/04/19 11:03:59;;;;;;;4.10;2.88;;;;;;;16.82;57.21;96799.19;10370691;28;20160;-31
2023/04/19 11:09:01;;;;;;;4.05;2.70;;;;;;;16.86;55.98;96795.84;10363498;28;20045;-32
2023/04/19 11:14:05;;;;;;;4.80;3.10;;;;;;;16.86;56.83;96789.13;10361624;28;20481;-32
2023/04/19 11:19:06;;;;;;;5.35;2.92;;;;;;;16.84;58.01;96787.41;10364932;28;20025;-32
2023/04/19 11:24:10;;;;;;;3.37;2.77;;;;;;;16.83;57.42;96780.66;10364198;28;20049;-32
2023/04/19 11:29:11;;;;;;;5.25;3.13;;;;;;;16.85;58.38;96778.97;10354095;28;20041;-32
2023/04/19 11:34:12;;;;;;;7.13;3.67;;;;;;;16.83;58.21;96770.53;10364373;28;20504;-33
2023/04/19 11:39:13;;;;;;;4.20;3.33;;;;;;;16.86;58.46;96775.59;10364006;28;20132;-31
2023/04/19 11:44:20;;;;;;;4.70;3.03;;;;;;;16.83;58.21;96780.66;10355503;28;20041;-33
2023/04/19 11:49:28;;;;;;;3.65;2.60;;;;;;;16.83;58.19;96775.59;10371159;28;20420;-32
2023/04/19 11:54:29;;;;;;;4.70;3.05;;;;;;;16.80;58.17;96776.41;10349011;28;20061;-32
2023/04/19 11:59:31;;;;;;;6.00;3.78;;;;;;;16.80;58.79;96762.91;10362926;28;20041;-31
2023/04/19 12:04:32;;;;;;;5.28;3.67;;;;;;;16.81;58.53;96767.16;10370471;28;20049;-32
2023/04/19 12:09:35;;;;;;;7.05;3.65;;;;;;;16.80;57.88;96765.44;10359607;28;20061;-33
2023/04/19 12:14:36;;;;;;;4.35;2.70;;;;;;;16.82;55.75;96758.75;10353687;28;20038;-32
2023/04/19 12:19:46;;;;;;;7.73;3.03;;;;;;;16.82;54.97;96744.41;10362722;28;20026;-32
2023/04/19 12:24:50;;;;;;;9.65;2.95;;;;;;;16.82;55.85;96743.56;10354873;28;20296;-31
2023/04/19 12:29:50;;;;;;;11.65;3.80;;;;;;;16.87;55.69;96746.97;10361116;28;20062;-32
2023/04/19 12:34:51;;;;;;;6.63;2.87;;;;;;;16.85;54.94;96743.56;10366889;28;20117;-31
2023/04/19 12:39:51;;;;;;;10.70;4.13;;;;;;;16.91;57.81;96743.63;10359561;28;20030;-32
2023/04/19 12:44:51;;;;;;;11.53;4.27;;;;;;;17.01;58.98;96730.19;10368790;28;20307;-31
2023/04/19 12:49:52;;;;;;;8.27;3.83;;;;;;;17.01;57.88;96723.47;10369754;28;20034;-31
2023/04/19 12:54:52;;;;;;;12.87;3.67;;;;;;;17.00;55.95;96725.97;10349458;28;20038;-32
2023/04/19 12:59:52;;;;;;;4.70;3.13;;;;;;;17.04;54.97;96726.00;10362984;28;20021;-32
2023/04/19 13:04:53;;;;;;;6.90;3.10;;;;;;;17.05;54.86;96711.66;10361193;28;20022;-32
2023/04/19 13:09:53;;;;;;;4.47;3.27;;;;;;;17.07;54.77;96704.94;10343655;28;20038;-33
2023/04/19 13:14:53;;;;;;;7.60;3.40;;;;;;;17.03;54.89;96708.28;10355853;28;20034;-32
2023/04/19 13:19:54;;;;;;;13.02;3.50;;;;;;;17.05;55.59;96701.53;10363737;28;20113;-32
2023/04/19 13:24:54;;;;;;;11.40;3.67;;;;;;;17.07;54.93;96692.31;10361645;28;20088;-32
2023/04/19 13:29:55;;;;;;;8.03;4.43;;;;;;;17.07;54.30;96685.53;10359730;28;20092;-32
2023/04/19 13:34:55;;;;;;;6.18;4.00;;;;;;;17.09;54.13;96685.56;10367543;28;20103;-32
2023/04/19 13:39:56;;;;;;;7.37;4.10;;;;;;;17.04;55.10;96669.50;10363336;28;20021;-32
2023/04/19 13:44:56;;;;;;;7.93;4.13;;;;;;;17.06;54.43;96665.31;10366382;28;20037;-31
2023/04/19 13:49:56;;;;;;;6.03;3.90;;;;;;;17.11;57.88;96667.03;10367418;28;20026;-32
2023/04/19 13:54:57;;;;;;;8.93;3.97;;;;;;;17.17;58.68;96663.66;10352363;28;20030;-32
2023/04/19 13:59:57;;;;;;;7.20;4.20;;;;;;;17.15;56.81;96652.72;10365669;28;20026;-32
2023/04/19 14:04:58;;;;;;;7.47;3.20;;;;;;;17.14;55.09;96645.97;10360250;28;20033;-32
2023/04/19 14:09:58;;;;;;;6.13;3.47;;;;;;;17.10;55.01;96639.19;10356379;28;20038;-32
2023/04/19 14:14:59;;;;;;;4.57;3.57;;;;;;;17.10;54.49;96634.13;10361751;28;20492;-32
2023/04/19 14:19:59;;;;;;;4.60;3.17;;;;;;;17.09;54.63;96637.50;10359021;28;20037;-32
2023/04/19 14:24:59;;;;;;;5.18;3.63;;;;;;;17.08;55.44;96630.75;10366408;28;20056;-32
2023/04/19 14:30:00;;;;;;;6.27;3.10;;;;;;;17.07;55.72;96619.78;10369201;28;20042;-33
2023/04/19 14:35:02;;;;;;;4.18;3.10;;;;;;;17.07;55.72;96613.88;10374639;28;20046;-32
2023/04/19 14:40:02;;;;;;;6.00;3.17;;;;;;;17.06;55.96;96607.16;10364807;28;20032;-31
2023/04/19 14:45:03;;;;;;;5.90;4.30;;;;;;;17.06;56.22;96597.03;10363050;28;20034;-32
2023/04/19 14:50:05;;;;;;;4.97;3.42;;;;;;;17.05;56.38;96601.22;10369558;28;20038;-32
2023/04/19 14:55:06;;;;;;;4.78;3.10;;;;;;;17.05;56.05;96601.22;10357099;28;20026;-32
2023/04/19 15:00:07;;;;;;;3.92;3.20;;;;;;;17.09;58.54;96591.97;10357133;28;20500;-33
2023/04/19 15:05:08;;;;;;;5.20;3.50;;;;;;;17.11;56.85;96587.75;10364615;28;20112;-33
2023/04/19 15:10:09;;;;;;;9.57;3.83;;;;;;;17.12;56.91;96580.19;10359119;28;20399;-32
2023/04/19 15:15:12;;;;;;;4.30;3.03;;;;;;;17.11;56.11;96580.16;10370909;28;20022;-33
2023/04/19 15:20:13;;;;;;;5.78;3.17;;;;;;;17.10;56.01;96573.41;10363674;28;20124;-32
2023/04/19 15:25:13;;;;;;;5.87;2.60;;;;;;;17.12;55.28;96571.72;10370316;28;20038;-32
2023/04/19 15:30:15;;;;;;;5.23;2.80;;;;;;;17.12;55.21;96575.13;10364290;28;20309;-32
2023/04/19 15:35:16;;;;;;;3.58;2.40;;;;;;;17.11;54.96;96570.03;10356557;28;20034;-33
2023/04/19 15:40:16;;;;;;;2.80;2.20;;;;;;;17.11;55.68;96570.91;10359127;28;20116;-32
2023/04/19 15:45:17;;;;;;;4.70;2.83;;;;;;;17.12;55.89;96567.53;10358866;28;20033;-32
2023/04/19 15:50:17;;;;;;;3.53;2.90;;;;;;;17.12;55.69;96565.00;10363563;28;20448;-33
2023/04/19 15:55:18;;;;;;;3.33;2.40;;;;;;;17.10;55.52;96553.19;10361188;28;20029;-33
2023/04/19 16:00:19;;;;;;;3.70;2.43;;;;;;;17.11;55.46;96559.94;10355892;28;20022;-32
2023/04/19 16:05:19;;;;;;;5.43;2.88;;;;;;;17.12;54.45;96561.63;10356985;28;20115;-32
2023/04/19 16:10:20;;;;;;;4.13;2.58;;;;;;;17.22;58.14;96563.31;10357450;28;20623;-32
2023/04/19 16:15:20;;;;;;;4.37;2.47;;;;;;;17.24;57.71;96569.25;10359759;28;20420;-32
2023/04/19 16:20:20;;;;;;;4.40;2.63;;;;;;;17.23;55.01;96580.22;10365602;28;20284;-32
2023/04/19 16:25:21;;;;;;;2.90;2.50;;;;;;;17.20;54.86;96592.84;10366631;28;20033;-32
2023/04/19 16:30:25;;;;;;;3.80;2.40;;;;;;;17.16;54.52;96589.44;10363902;28;20048;-33
2023/04/19 16:35:26;;;;;;;3.00;2.63;;;;;;;17.11;55.84;96578.50;10357056;28;20026;-33
2023/04/19 16:40:26;;;;;;;2.97;2.38;;;;;;;17.15;55.46;96584.41;10361223;28;20018;-32
2023/04/19 16:45:26;;;;;;;4.37;2.57;;;;;;;17.15;55.38;96582.72;10367537;28;20030;-32
2023/04/19 16:50:27;;;;;;;5.20;2.70;;;;;;;17.14;56.23;96577.66;10368531;28;20037;-32
2023/04/19 16:55:27;;;;;;;5.73;3.00;;;;;;;17.12;57.54;96566.69;10345205;28;20044;-33
2023/04/19 17:00:28;;;;;;;4.00;2.43;;;;;;;17.15;55.52;96571.75;10348411;28;20634;-33
2023/04/19 17:05:28;;;;;;;6.20;2.83;;;;;;;17.15;55.63;96567.53;10363793;28;20038;-33
2023/04/19 17:10:28;;;;;;;5.73;2.80;;;;;;;17.16;56.03;96563.34;10354029;28;20034;-33
2023/04/19 17:15:30;;;;;;;4.80;3.70;;;;;;;17.18;55.97;96566.69;10352572;28;20504;-33
2023/04/19 17:20:30;;;;;;;5.43;3.08;;;;;;;17.22;59.27;96563.31;10350385;28;20067;-34
2023/04/19 17:25:31;;;;;;;11.10;3.55;;;;;;;17.24;58.40;96556.59;10344357;28;20048;-34
2023/04/19 17:30:31;;;;;;;5.65;3.05;;;;;;;17.17;56.98;96562.47;10356868;28;20042;-33
2023/04/19 17:35:32;;;;;;;5.68;2.72;;;;;;;17.15;56.27;96561.66;10367017;28;20037;-34
2023/04/19 17:40:32;;;;;;;7.33;2.57;;;;;;;17.15;55.58;96567.53;10357505;28;20033;-33
2023/04/19 17:45:33;;;;;;;4.37;2.23;;;;;;;17.15;54.94;96566.72;10358443;28;20037;-33
2023/04/19 17:50:33;;;;;;;3.45;2.45;;;;;;;17.15;54.71;96571.75;10365722;28;20197;-33
2023/04/19 17:55:34;;;;;;;8.50;2.27;;;;;;;17.17;55.58;96575.13;10350443;28;20030;-33
2023/04/19 18:00:34;;;;;;;3.50;1.90;;;;;;;17.16;55.02;96575.97;10362230;28;20034;-33
2023/04/19 18:05:36;;;;;;;4.50;2.47;;;;;;;17.18;55.18;96571.75;10357521;28;20041;-34
2023/04/19 18:10:36;;;;;;;4.97;2.58;;;;;;;17.12;55.77;96571.72;10361229;28;20045;-33
2023/04/19 18:15:36;;;;;;;5.80;3.00;;;;;;;17.17;58.19;96575.13;10345956;28;20041;-33
2023/04/19 18:20:37;;;;;;;6.33;2.50;;;;;;;17.17;54.92;96587.78;10353534;28;20040;-34
2023/04/19 18:25:38;;;;;;;6.20;2.33;;;;;;;17.21;55.77;96587.78;10368215;28;20817;-33
2023/04/19 18:30:38;;;;;;;9.48;3.55;;;;;;;17.26;58.64;96593.69;10364966;28;20452;-34
2023/04/19 18:35:40;;;;;;;8.23;2.70;;;;;;;17.26;57.27;96596.22;10356746;28;20042;-33
2023/04/19 18:40:40;;;;;;;6.47;2.95;;;;;;;17.28;57.70;96602.16;10368707;28;20040;-33
2023/04/19 18:45:41;;;;;;;4.00;2.70;;;;;;;17.25;57.03;96609.72;10368207;28;20103;-33
2023/04/19 18:50:41;;;;;;;5.15;2.67;;;;;;;17.25;57.23;96619.00;10366836;28;20292;-33
2023/04/19 18:55:41;;;;;;;4.30;2.27;;;;;;;17.22;57.65;96613.91;10346712;28;20042;-34
2023/04/19 19:00:42;;;;;;;5.77;2.40;;;;;;;17.21;57.32;96619.81;10352999;28;20168;-33
2023/04/19 19:05:42;;;;;;;6.07;2.80;;;;;;;17.22;58.06;96629.97;10361277;28;20042;-33
2023/04/19 19:10:43;;;;;;;4.63;2.72;;;;;;;17.17;57.20;96636.69;10341799;28;20049;-33
2023/04/19 19:15:43;;;;;;;3.50;2.83;;;;;;;17.21;58.50;96637.53;10348355;28;20042;-35
2023/04/19 19:20:43;;;;;;;3.90;2.20;;;;;;;17.20;57.22;96654.41;10360826;28;20036;-33
2023/04/19 19:25:48;;;;;;;8.23;3.20;;;;;;;17.21;57.04;96638.38;10353309;28;20068;-34
2023/04/19 19:30:49;;;;;;;7.43;3.08;;;;;;;17.21;60.07;96652.72;10351955;28;20508;-33
2023/04/19 19:35:49;;;;;;;4.70;2.55;;;;;;;17.20;60.02;96651.03;10367755;28;20045;-34
2023/04/19 19:40:50;;;;;;;6.60;3.17;;;;;;;17.19;58.49;96644.28;10353917;28;20129;-33
2023/04/19 19:45:51;;;;;;;4.63;2.17;;;;;;;17.21;56.95;96630.81;10357223;28;20052;-33
2023/04/19 19:50:51;;;;;;;4.37;2.13;;;;;;;17.21;58.13;96635.00;10354656;28;20037;-33
2023/04/19 19:55:53;;;;;;;3.80;2.10;;;;;;;17.20;58.32;96623.19;10353653;28;20100;-34
2023/04/19 20:00:55;;;;;;;4.30;2.20;;;;;;;17.20;58.40;96615.59;10349293;28;20044;-34
2023/04/19 20:05:55;;;;;;;3.45;2.20;;;;;;;17.20;59.44;96610.56;10366665;28;20099;-32
2023/04/19 20:10:55;;;;;;;5.33;2.57;;;;;;;17.18;58.51;96602.97;10358416;28;20091;-33
2023/04/19 20:15:57;;;;;;;3.17;2.27;;;;;;;17.18;57.95;96599.59;10353550;28;20068;-33
2023/04/19 20:20:57;;;;;;;2.70;2.40;;;;;;;17.18;59.68;96597.91;10350688;28;20038;-33
2023/04/19 20:25:59;;;;;;;3.60;2.23;;;;;;;17.20;56.92;96595.38;10344550;28;20034;-34
2023/04/19 20:31:00;;;;;;;3.95;2.50;;;;;;;17.22;60.17;96599.59;10352914;28;20297;-34
2023/04/19 20:36:01;;;;;;;3.13;2.60;;;;;;;17.23;60.60;96590.34;10348954;28;20034;-33
2023/04/19 20:41:02;;;;;;;3.42;2.10;;;;;;;17.26;61.60;96585.28;10355672;28;20030;-33
2023/04/19 20:46:02;;;;;;;2.80;1.90;;;;;;;17.26;56.17;96572.63;10356754;28;20377;-34
2023/04/19 20:51:02;;;;;;;5.97;2.93;;;;;;;17.21;56.57;96581.88;10348049;28;20413;-33
2023/04/19 20:56:03;;;;;;;4.73;2.00;;;;;;;17.24;58.05;96574.31;10356052;28;20340;-33
2023/04/19 21:01:03;;;;;;;7.97;2.77;;;;;;;17.21;59.44;96571.75;10355025;28;20037;-33
2023/04/19 21:06:04;;;;;;;3.22;2.00;;;;;;;17.21;59.26;96567.56;10351323;28;20293;-34
2023/04/19 21:11:04;;;;;;;3.63;2.20;;;;;;;17.20;58.64;96576.00;10345868;28;20029;-33
2023/04/19 21:16:05;;;;;;;7.43;2.13;;;;;;;17.19;59.76;96570.91;10355507;28;20033;-34
2023/04/19 21:21:05;;;;;;;4.03;2.38;;;;;;;17.19;58.68;96563.31;10361577;28;20136;-33
2023/04/19 21:26:07;;;;;;;3.63;2.13;;;;;;;17.18;57.58;96556.59;10368416;28;20045;-32
2023/04/19 21:31:07;;;;;;;5.05;2.53;;;;;;;17.16;60.03;96560.81;10357630;28;20027;-33
2023/04/19 21:36:08;;;;;;;4.63;2.17;;;;;;;17.19;60.36;96563.31;10368310;28;20038;-33
2023/04/19 21:41:08;;;;;;;5.45;2.33;;;;;;;17.19;60.36;96570.91;10357867;28;20062;-33
2023/04/19 21:46:09;;;;;;;3.10;1.88;;;;;;;17.20;59.91;96568.41;10355444;28;20038;-33
2023/04/19 21:51:11;;;;;;;4.03;2.10;;;;;;;17.19;57.96;96564.19;10359391;28;20041;-33
2023/04/19 21:56:11;;;;;;;3.50;1.77;;;;;;;17.18;57.86;96564.16;10358946;28;20042;-33
2023/04/19 22:01:12;;;;;;;2.60;1.80;;;;;;;17.18;58.33;96559.97;10344240;28;20124;-34
2023/04/19 22:06:15;;;;;;;3.77;1.80;;;;;;;17.17;59.41;96559.97;10354243;28;20038;-33
2023/04/19 22:11:16;;;;;;;4.97;2.25;;;;;;;17.17;58.90;96560.78;10358324;28;20791;-33
2023/04/19 22:16:16;;;;;;;5.75;2.10;;;;;;;17.17;60.19;96565.00;10354951;28;20038;-34
2023/04/19 22:21:17;;;;;;;2.57;2.00;;;;;;;17.14;59.46;96552.38;10343037;28;20030;-34
2023/04/19 22:26:18;;;;;;;3.37;1.50;;;;;;;17.16;60.08;96553.22;10351251;28;20038;-34
2023/04/19 22:31:19;;;;;;;4.63;1.73;;;;;;;17.16;59.07;96541.38;10357166;28;20034;-33
2023/04/19 22:36:19;;;;;;;3.40;2.07;;;;;;;17.22;60.03;96543.94;10361726;28;20038;-34
2023/04/19 22:41:19;;;;;;;3.10;1.73;;;;;;;17.26;60.09;96550.69;10364441;28;20033;-33
2023/04/19 22:46:20;;;;;;;5.30;2.53;;;;;;;17.21;60.39;96541.41;10357317;28;20034;-33
2023/04/19 22:51:21;;;;;;;2.65;1.80;;;;;;;17.20;59.39;96532.97;10365946;28;20037;-33
2023/04/19 22:56:21;;;;;;;5.78;2.03;;;;;;;17.19;59.38;96523.72;10337074;28;20058;-33
2023/04/19 23:01:22;;;;;;;3.15;1.92;;;;;;;17.18;59.46;96516.09;10357679;28;20141;-33
2023/04/19 23:06:22;;;;;;;2.40;1.67;;;;;;;17.20;58.91;96509.34;10362113;28;20404;-33
2023/04/19 23:11:23;;;;;;;3.03;2.00;;;;;;;17.20;59.01;96497.56;10365164;28;20156;-34
2023/04/19 23:16:24;;;;;;;3.05;1.60;;;;;;;17.22;58.31;96487.44;10364930;28;20030;-33
2023/04/19 23:21:25;;;;;;;4.00;1.67;;;;;;;17.21;57.90;96476.47;10365093;28;20037;-34